createdAt,value
2023-03-10T00:00:05.233Z,4.53
2023-03-10T00:02:34.361Z,4.15
2023-03-10T00:05:03.375Z,5.75
2023-03-10T00:07:30.774Z,7.70
2023-03-10T00:09:58.050Z,6.35
2023-03-10T00:12:27.235Z,5.47
2023-03-10T00:14:55.767Z,6.95
2023-03-10T00:17:23.067Z,5.50
2023-03-10T00:19:50.283Z,7.88
2023-03-10T00:22:19.732Z,8.35
2023-03-10T00:25:56.049Z,7.07
2023-03-10T00:28:24.611Z,4.35
2023-03-10T00:31:05.872Z,4.55
2023-03-10T00:33:37.343Z,4.65
2023-03-10T00:36:12.975Z,4.78
2023-03-10T00:38:42.383Z,3.95
2023-03-10T00:41:25.049Z,6.05
2023-03-10T00:43:52.804Z,4.35
2023-03-10T00:46:20.669Z,10.10
2023-03-10T00:48:48.011Z,4.47
2023-03-10T00:51:16.241Z,5.18
2023-03-10T00:53:43.872Z,5.60
2023-03-10T00:56:15.386Z,5.63
2023-03-10T00:58:44.144Z,13.20
2023-03-10T01:01:26.814Z,6.60
2023-03-10T01:03:57.709Z,5.10
2023-03-10T01:06:25.464Z,4.70
2023-03-10T01:08:52.812Z,5.10
2023-03-10T01:11:25.472Z,6.00
2023-03-10T01:13:53.242Z,3.63
2023-03-10T01:16:20.543Z,4.40
2023-03-10T01:18:48.316Z,2.80
2023-03-10T01:21:23.642Z,6.55
2023-03-10T01:23:51.019Z,5.07
2023-03-10T01:26:19.018Z,4.13
2023-03-10T01:28:48.445Z,4.22
2023-03-10T01:31:17.366Z,6.28
2023-03-10T01:33:46.097Z,5.70
2023-03-10T01:36:18.593Z,5.35
2023-03-10T01:38:48.236Z,4.95
2023-03-10T01:43:46.011Z,13.35
2023-03-10T01:46:39.257Z,3.92
2023-03-10T01:49:17.408Z,3.50
2023-03-10T01:51:50.977Z,5.80
2023-03-10T01:54:29.056Z,3.92
2023-03-10T01:56:57.718Z,5.47
2023-03-10T01:59:27.178Z,4.90
2023-03-10T02:01:57.872Z,6.18
2023-03-10T02:04:39.993Z,4.63
2023-03-10T02:07:08.126Z,10.10
2023-03-10T02:09:40.489Z,6.82
2023-03-10T02:12:08.997Z,5.03
2023-03-10T02:14:36.908Z,6.70
2023-03-10T02:17:08.306Z,6.13
2023-03-10T02:20:08.800Z,3.47
2023-03-10T02:22:40.335Z,3.88
2023-03-10T02:25:18.745Z,3.22
2023-03-10T02:27:47.410Z,4.80
2023-03-10T02:30:30.209Z,3.92
2023-03-10T02:33:05.691Z,5.78
2023-03-10T02:35:33.002Z,8.48
2023-03-10T02:38:05.332Z,9.27
2023-03-10T02:40:37.441Z,7.50
2023-03-10T02:43:26.850Z,12.77
2023-03-10T02:46:02.827Z,9.32
2023-03-10T02:48:37.782Z,9.55
2023-03-10T02:51:18.864Z,7.85
2023-03-10T02:53:46.241Z,5.78
2023-03-10T02:56:14.076Z,7.47
2023-03-10T02:58:43.448Z,11.57
2023-03-10T03:01:10.724Z,8.10
2023-03-10T03:03:41.785Z,82.47
2023-03-10T03:06:10.285Z,71.40
2023-03-10T03:08:37.699Z,39.08
2023-03-10T03:11:07.903Z,24.80
2023-03-10T03:13:35.252Z,10.65
2023-03-10T03:16:04.551Z,6.65
2023-03-10T03:18:31.938Z,10.13
2023-03-10T03:21:06.612Z,7.30
2023-03-10T03:23:35.119Z,13.13
2023-03-10T03:26:02.767Z,8.30
2023-03-10T03:28:30.676Z,8.13
2023-03-10T03:30:57.859Z,7.25
2023-03-10T03:33:25.829Z,7.90
2023-03-10T03:35:53.217Z,17.30
2023-03-10T03:38:20.644Z,6.32
2023-03-10T03:40:48.015Z,11.82
2023-03-10T03:43:19.642Z,13.48
2023-03-10T03:45:48.027Z,6.88
2023-03-10T03:48:15.674Z,6.88
2023-03-10T03:50:43.527Z,14.07
2023-03-10T03:53:20.701Z,8.20
2023-03-10T03:55:50.716Z,15.25
2023-03-10T03:58:20.387Z,9.57
2023-03-10T04:00:49.744Z,13.57
2023-03-10T04:03:18.698Z,13.90
2023-03-10T04:05:46.833Z,9.82
2023-03-10T04:08:14.399Z,10.32
2023-03-10T04:10:41.683Z,6.88
2023-03-10T04:13:08.890Z,5.20
2023-03-10T04:15:36.426Z,6.68
2023-03-10T04:18:04.230Z,8.95
2023-03-10T04:20:31.778Z,10.00
2023-03-10T04:23:01.408Z,11.43
2023-03-10T04:25:32.461Z,6.30
2023-03-10T04:27:59.913Z,10.77
2023-03-10T04:30:29.049Z,9.73
2023-03-10T04:33:01.704Z,15.07
2023-03-10T04:35:31.272Z,10.38
2023-03-10T04:37:59.557Z,8.70
2023-03-10T04:40:27.152Z,9.73
2023-03-10T04:42:55.053Z,8.63
2023-03-10T04:45:22.754Z,11.23
2023-03-10T04:47:52.008Z,10.02
2023-03-10T04:50:19.453Z,12.23
2023-03-10T04:52:49.558Z,14.07
2023-03-10T04:55:18.613Z,24.75
2023-03-10T04:57:47.408Z,11.75
2023-03-10T05:00:15.816Z,10.38
2023-03-10T05:02:43.789Z,7.03
2023-03-10T05:05:11.448Z,7.63
2023-03-10T05:07:41.654Z,7.32
2023-03-10T05:10:10.421Z,9.20
2023-03-10T05:12:39.182Z,6.20
2023-03-10T05:15:08.290Z,5.90
2023-03-10T05:17:36.003Z,4.63
2023-03-10T05:20:06.805Z,4.72
2023-03-10T05:22:34.193Z,4.10
2023-03-10T05:25:01.504Z,4.78
2023-03-10T05:27:28.843Z,4.85
2023-03-10T05:29:56.109Z,4.78
2023-03-10T05:32:26.323Z,4.82
2023-03-10T05:34:54.540Z,7.88
2023-03-10T05:37:21.830Z,4.90
2023-03-10T05:39:49.137Z,6.88
2023-03-10T05:42:20.317Z,5.50
2023-03-10T05:44:47.769Z,5.78
2023-03-10T05:47:18.469Z,10.00
2023-03-10T05:49:46.853Z,8.20
2023-03-10T05:52:14.592Z,5.93
2023-03-10T05:54:42.874Z,5.25
2023-03-10T05:57:13.995Z,10.88
2023-03-10T05:59:42.191Z,11.35
2023-03-10T06:02:09.866Z,7.78
2023-03-10T06:04:37.203Z,11.70
2023-03-10T06:07:05.461Z,8.40
2023-03-10T06:09:33.041Z,16.80
2023-03-10T06:12:00.209Z,10.55
2023-03-10T06:14:27.478Z,14.40
2023-03-10T06:16:55.662Z,15.80
2023-03-10T06:19:23.895Z,14.98
2023-03-10T06:21:51.420Z,13.20
2023-03-10T06:24:18.666Z,13.85
2023-03-10T06:26:46.072Z,15.93
2023-03-10T06:29:13.237Z,17.45
2023-03-10T06:31:40.658Z,11.57
2023-03-10T06:34:07.870Z,13.73
2023-03-10T06:36:36.832Z,16.02
2023-03-10T06:39:04.085Z,12.52
2023-03-10T06:41:31.247Z,12.90
2023-03-10T06:43:58.541Z,23.08
2023-03-10T06:46:25.943Z,15.15
2023-03-10T06:48:53.148Z,13.75
2023-03-10T06:51:22.275Z,10.18
2023-03-10T06:53:49.835Z,8.52
2023-03-10T06:56:21.094Z,7.35
2023-03-10T06:58:48.872Z,10.38
2023-03-10T07:01:27.826Z,9.07
2023-03-10T07:03:56.787Z,7.72
2023-03-10T07:06:25.024Z,12.07
2023-03-10T07:08:53.760Z,11.25
2023-03-10T07:11:22.141Z,20.50
2023-03-10T07:13:49.433Z,12.03
2023-03-10T07:16:17.550Z,19.20
2023-03-10T07:18:45.485Z,21.65
2023-03-10T07:21:17.248Z,9.18
2023-03-10T07:23:45.293Z,10.40
2023-03-10T07:26:18.066Z,9.43
2023-03-10T07:28:45.922Z,13.68
2023-03-10T07:31:15.133Z,25.60
2023-03-10T07:36:14.538Z,27.88
2023-03-10T07:38:42.239Z,12.77
2023-03-10T07:41:14.336Z,8.90
2023-03-10T07:43:41.545Z,7.15
2023-03-10T07:46:12.924Z,4.97
2023-03-10T07:48:40.464Z,10.13
2023-03-10T07:51:08.444Z,6.35
2023-03-10T07:53:36.205Z,7.85
2023-03-10T07:56:09.533Z,10.35
2023-03-10T07:58:37.209Z,9.02
2023-03-10T08:01:06.403Z,7.65
2023-03-10T08:06:02.282Z,5.28
2023-03-10T08:08:29.599Z,5.40
2023-03-10T08:11:09.910Z,6.88
2023-03-10T08:13:37.894Z,8.52
2023-03-10T08:16:06.008Z,17.73
2023-03-10T08:18:33.715Z,12.18
2023-03-10T08:21:05.276Z,14.02
2023-03-10T08:23:34.436Z,12.50
2023-03-10T08:26:09.003Z,8.00
2023-03-10T08:28:37.915Z,12.43
2023-03-10T08:31:12.732Z,9.45
2023-03-10T08:33:41.005Z,6.50
2023-03-10T08:36:29.647Z,11.23
2023-03-10T08:39:00.003Z,5.63
2023-03-10T08:41:37.998Z,7.60
2023-03-10T08:44:06.414Z,6.93
2023-03-10T08:46:34.458Z,8.45
2023-03-10T08:49:02.126Z,5.15
2023-03-10T08:51:29.914Z,2.50
2023-03-10T08:53:57.708Z,1.85
2023-03-10T08:56:25.786Z,6.93
2023-03-10T08:59:00.178Z,5.82
2023-03-10T09:01:34.865Z,4.03
2023-03-10T09:04:04.802Z,6.35
2023-03-10T09:06:32.439Z,3.20
2023-03-10T09:08:59.734Z,4.43
2023-03-10T09:11:33.950Z,3.15
2023-03-10T09:14:02.515Z,4.10
2023-03-10T09:16:30.553Z,2.83
2023-03-10T09:18:59.650Z,1.80
2023-03-10T09:23:55.264Z,1.75
2023-03-10T09:26:22.594Z,2.15
2023-03-10T09:28:50.899Z,1.25
2023-03-10T09:31:38.963Z,3.60
2023-03-10T09:34:07.757Z,0.87
2023-03-10T09:36:35.695Z,1.50
2023-03-10T09:39:03.570Z,3.63
2023-03-10T09:42:06.890Z,2.08
2023-03-10T09:44:58.455Z,1.70
2023-03-10T09:48:11.120Z,3.20
2023-03-10T09:50:51.897Z,2.22
2023-03-10T09:53:52.770Z,1.20
2023-03-10T09:56:33.591Z,3.83
2023-03-10T09:59:04.914Z,0.63
2023-03-10T10:01:32.773Z,1.92
2023-03-10T10:04:41.246Z,10.63
2023-03-10T10:07:19.181Z,7.13
2023-03-10T10:10:10.731Z,0.77
2023-03-10T10:12:38.071Z,1.67
2023-03-10T10:15:20.771Z,2.10
2023-03-10T10:18:16.176Z,11.50
2023-03-10T10:20:53.303Z,2.10
2023-03-10T10:23:46.808Z,1.85
2023-03-10T10:26:20.495Z,3.10
2023-03-10T10:29:18.199Z,4.80
2023-03-10T10:32:11.795Z,1.67
2023-03-10T10:34:45.763Z,3.75
2023-03-10T10:37:42.436Z,10.43
2023-03-10T10:40:28.836Z,2.25
2023-03-10T10:43:00.251Z,2.70
2023-03-10T10:45:38.994Z,2.05
2023-03-10T10:48:26.570Z,3.53
2023-03-10T10:50:54.328Z,5.20
2023-03-10T10:53:26.178Z,3.60
2023-03-10T10:56:18.880Z,3.83
2023-03-10T10:59:18.813Z,2.17
2023-03-10T11:02:33.447Z,5.30
2023-03-10T11:05:20.747Z,1.77
2023-03-10T11:07:49.883Z,3.70
2023-03-10T11:13:17.372Z,1.92
2023-03-10T11:15:59.916Z,1.10
2023-03-10T11:19:01.483Z,2.60
2023-03-10T11:21:33.904Z,2.55
2023-03-10T11:24:26.015Z,10.32
2023-03-10T11:27:06.498Z,11.70
2023-03-10T11:30:01.702Z,4.40
2023-03-10T11:32:34.956Z,1.50
2023-03-10T11:35:18.950Z,4.63
2023-03-10T11:38:12.963Z,1.23
2023-03-10T11:40:56.348Z,1.67
2023-03-10T11:43:33.531Z,5.82
2023-03-10T11:46:19.068Z,3.00
2023-03-10T11:49:16.912Z,2.28
2023-03-10T11:51:58.200Z,2.60
2023-03-10T11:54:34.474Z,3.00
2023-03-10T11:57:16.218Z,2.22
2023-03-10T11:59:53.735Z,1.85
2023-03-10T12:02:35.274Z,6.22
2023-03-10T12:05:13.792Z,2.90
2023-03-10T12:07:46.006Z,1.77
2023-03-10T12:10:16.377Z,0.88
2023-03-10T12:12:49.568Z,3.13
2023-03-10T12:15:21.953Z,1.85
2023-03-10T12:17:52.388Z,3.13
2023-03-10T12:20:19.620Z,3.80
2023-03-10T12:22:56.761Z,2.45
2023-03-10T12:25:29.844Z,6.32
2023-03-10T12:28:15.449Z,3.35
2023-03-10T12:31:01.951Z,1.35
2023-03-10T12:33:41.772Z,2.40
2023-03-10T12:36:32.126Z,1.88
2023-03-10T12:39:06.688Z,1.33
2023-03-10T12:41:49.312Z,1.08
2023-03-10T12:44:30.508Z,1.20
2023-03-10T12:47:18.622Z,2.35
2023-03-10T12:50:23.512Z,2.03
2023-03-10T12:53:11.630Z,2.08
2023-03-10T12:55:42.989Z,4.47
2023-03-10T12:58:23.149Z,2.55
2023-03-10T13:01:06.081Z,1.50
2023-03-10T13:03:43.275Z,0.80
2023-03-10T13:06:10.484Z,3.05
2023-03-10T13:08:47.974Z,5.32
2023-03-10T13:11:18.030Z,1.33
2023-03-10T13:13:51.137Z,3.75
2023-03-10T13:16:20.402Z,5.00
2023-03-10T13:18:50.735Z,4.70
2023-03-10T13:21:36.992Z,5.03
2023-03-10T13:24:24.060Z,1.27
2023-03-10T13:27:19.280Z,2.90
2023-03-10T13:30:13.434Z,4.03
2023-03-10T13:32:41.142Z,3.25
2023-03-10T13:35:36.913Z,3.42
2023-03-10T13:38:20.245Z,3.55
2023-03-10T13:41:02.384Z,8.18
2023-03-10T13:43:39.805Z,6.50
2023-03-10T13:46:28.578Z,3.50
2023-03-10T13:49:05.762Z,3.50
2023-03-10T13:51:36.075Z,2.40
2023-03-10T13:54:28.160Z,3.38
2023-03-10T13:57:31.566Z,7.18
2023-03-10T13:59:59.865Z,3.53
2023-03-10T14:02:39.234Z,4.73
2023-03-10T14:05:41.030Z,4.78
2023-03-10T14:08:31.844Z,10.10
2023-03-10T14:11:44.205Z,5.15
2023-03-10T14:14:12.751Z,6.18
2023-03-10T14:16:50.220Z,4.00
2023-03-10T14:19:43.272Z,10.40
2023-03-10T14:22:32.489Z,8.07
2023-03-10T14:25:03.777Z,14.23
2023-03-10T14:27:34.470Z,9.70
2023-03-10T14:30:20.413Z,4.38
2023-03-10T14:32:48.263Z,12.13
2023-03-10T14:35:19.628Z,4.97
2023-03-10T14:37:48.715Z,7.65
2023-03-10T14:42:44.869Z,6.57
2023-03-10T14:45:31.566Z,5.90
2023-03-10T14:48:11.015Z,5.35
2023-03-10T14:50:38.510Z,9.23
2023-03-10T14:53:11.302Z,7.55
2023-03-10T14:55:40.386Z,10.20
2023-03-10T15:00:35.422Z,14.27
2023-03-10T15:03:04.367Z,9.93
2023-03-10T15:05:47.260Z,17.23
2023-03-10T15:08:16.142Z,13.52
2023-03-10T15:10:47.662Z,35.03
2023-03-10T15:13:15.931Z,14.77
2023-03-10T15:15:46.057Z,8.25
2023-03-10T15:18:20.327Z,16.33
2023-03-10T15:20:47.987Z,3.85
2023-03-10T15:23:19.247Z,8.63
2023-03-10T15:25:47.902Z,16.98
2023-03-10T15:28:15.188Z,17.20
2023-03-10T15:30:42.631Z,8.88
2023-03-10T15:33:10.343Z,13.00
2023-03-10T15:35:39.290Z,8.90
2023-03-10T15:40:35.728Z,6.85
2023-03-10T15:43:03.029Z,11.75
2023-03-10T15:45:31.785Z,7.55
2023-03-10T15:47:59.481Z,10.65
2023-03-10T15:50:27.499Z,4.70
2023-03-10T15:52:58.389Z,6.50
2023-03-10T15:55:28.274Z,6.03
2023-03-10T15:57:57.024Z,6.45
2023-03-10T16:00:26.627Z,6.00
2023-03-10T16:02:55.207Z,9.35
2023-03-10T16:05:22.911Z,9.95
2023-03-10T16:07:50.730Z,8.90
2023-03-10T16:10:20.140Z,15.40
2023-03-10T16:12:49.267Z,8.32
2023-03-10T16:15:18.444Z,5.78
2023-03-10T16:17:46.013Z,8.43
2023-03-10T16:20:14.237Z,7.55
2023-03-10T16:22:42.497Z,11.77
2023-03-10T16:25:16.213Z,7.90
2023-03-10T16:27:45.303Z,10.27
2023-03-10T16:32:48.816Z,7.10
2023-03-10T16:35:18.429Z,5.93
2023-03-10T16:37:46.169Z,10.10
2023-03-10T16:40:13.894Z,8.35
2023-03-10T16:42:44.837Z,8.93
2023-03-10T16:45:13.274Z,8.48
2023-03-10T16:50:13.469Z,13.45
2023-03-10T16:52:42.050Z,5.85
2023-03-10T16:55:17.695Z,8.07
2023-03-10T16:57:45.358Z,7.07
2023-03-10T17:00:13.940Z,10.90
2023-03-10T17:02:41.193Z,9.73
2023-03-10T17:05:09.490Z,7.13
2023-03-10T17:07:46.367Z,4.30
2023-03-10T17:10:21.087Z,6.00
2023-03-10T17:12:48.491Z,6.97
2023-03-10T17:15:15.789Z,6.40
2023-03-10T17:17:42.964Z,10.10
2023-03-10T17:20:11.003Z,12.18
2023-03-10T17:22:39.088Z,9.50
2023-03-10T17:25:07.110Z,13.63
2023-03-10T17:27:34.481Z,12.05
2023-03-10T17:30:01.980Z,17.58
2023-03-10T17:32:30.137Z,14.00
2023-03-10T17:34:57.453Z,14.05
2023-03-10T17:37:24.718Z,14.25
2023-03-10T17:39:53.990Z,12.02
2023-03-10T17:42:22.040Z,24.13
2023-03-10T17:44:49.275Z,10.88
2023-03-10T17:47:16.671Z,4.80
2023-03-10T17:49:43.879Z,8.32
2023-03-10T17:52:11.005Z,14.32
2023-03-10T17:54:38.483Z,15.27
2023-03-10T17:57:06.215Z,13.98
2023-03-10T17:59:36.877Z,16.60
2023-03-10T18:02:04.322Z,16.38
2023-03-10T18:04:32.968Z,7.63
2023-03-10T18:07:00.219Z,9.18
2023-03-10T18:09:27.682Z,12.38
2023-03-10T18:11:56.714Z,9.90
2023-03-10T18:14:24.658Z,14.18
2023-03-10T18:16:52.059Z,12.45
2023-03-10T18:19:20.642Z,24.35
2023-03-10T18:21:49.327Z,10.23
2023-03-10T18:24:17.087Z,13.65
2023-03-10T18:26:45.093Z,9.45
2023-03-10T18:29:13.558Z,11.48
2023-03-10T18:31:41.636Z,23.95
2023-03-10T18:34:09.625Z,11.82
2023-03-10T18:36:37.037Z,6.40
2023-03-10T18:39:05.001Z,9.20
2023-03-10T18:41:32.956Z,9.13
2023-03-10T18:44:00.449Z,10.77
2023-03-10T18:46:28.724Z,11.68
2023-03-10T18:48:56.942Z,7.63
2023-03-10T18:51:27.215Z,5.15
2023-03-10T18:53:55.131Z,9.00
2023-03-10T18:56:25.065Z,7.40
2023-03-10T18:58:52.269Z,8.73
2023-03-10T19:01:19.515Z,7.43
2023-03-10T19:03:46.755Z,5.22
2023-03-10T19:06:14.091Z,7.07
2023-03-10T19:08:41.613Z,4.22
2023-03-10T19:11:09.308Z,5.85
2023-03-10T19:13:39.830Z,6.10
2023-03-10T19:16:09.115Z,4.72
2023-03-10T19:18:36.786Z,5.40
2023-03-10T19:21:05.542Z,6.80
2023-03-10T19:23:34.325Z,11.18
2023-03-10T19:26:02.784Z,6.05
2023-03-10T19:28:30.787Z,7.88
2023-03-10T19:30:58.065Z,7.15
2023-03-10T19:33:25.451Z,2.78
2023-03-10T19:36:04.619Z,6.75
2023-03-10T19:38:36.043Z,10.23
2023-03-10T19:41:06.094Z,6.53
2023-03-10T19:43:35.255Z,7.18
2023-03-10T19:48:31.814Z,6.07
2023-03-10T19:51:00.521Z,4.70
2023-03-10T19:53:29.456Z,4.80
2023-03-10T19:56:04.706Z,10.30
2023-03-10T19:58:33.619Z,8.38
2023-03-10T20:01:02.747Z,4.32
2023-03-10T20:03:31.317Z,8.02
2023-03-10T20:05:58.794Z,5.93
2023-03-10T20:08:26.012Z,8.10
2023-03-10T20:10:53.415Z,9.02
2023-03-10T20:13:20.568Z,16.58
2023-03-10T20:15:47.809Z,5.45
2023-03-10T20:18:17.783Z,3.08
2023-03-10T20:20:45.035Z,3.17
2023-03-10T20:23:12.896Z,9.20
2023-03-10T20:25:40.481Z,7.25
2023-03-10T20:28:08.637Z,5.15
2023-03-10T20:30:37.012Z,4.45
2023-03-10T20:33:04.313Z,10.33
2023-03-10T20:35:33.060Z,8.13
2023-03-10T20:38:01.533Z,4.07
2023-03-10T20:40:28.934Z,4.28
2023-03-10T20:43:00.624Z,5.10
2023-03-10T20:45:27.989Z,8.10
2023-03-10T20:47:55.814Z,7.75
2023-03-10T20:50:23.382Z,5.43
2023-03-10T20:52:51.569Z,9.20
2023-03-10T20:55:26.882Z,8.35
2023-03-10T20:57:57.539Z,8.30
2023-03-10T21:00:27.572Z,5.95
2023-03-10T21:02:56.427Z,7.43
2023-03-10T21:05:26.053Z,13.40
2023-03-10T21:07:53.989Z,5.63
2023-03-10T21:10:22.088Z,3.40
2023-03-10T21:12:50.443Z,4.97
2023-03-10T21:15:18.928Z,4.03
2023-03-10T21:17:47.004Z,6.35
2023-03-10T21:20:22.373Z,3.00
2023-03-10T21:22:50.159Z,4.35
2023-03-10T21:25:22.520Z,4.55
2023-03-10T21:27:53.579Z,7.28
2023-03-10T21:30:22.988Z,4.57
2023-03-10T21:32:50.405Z,4.53
2023-03-10T21:35:17.969Z,7.97
2023-03-10T21:37:46.916Z,5.00
2023-03-10T21:40:19.173Z,2.83
2023-03-10T21:42:47.842Z,8.27
2023-03-10T21:45:19.096Z,11.00
2023-03-10T21:47:46.755Z,5.35
2023-03-10T21:50:15.417Z,6.15
2023-03-10T21:52:43.211Z,3.28
2023-03-10T21:55:23.872Z,3.05
2023-03-10T21:57:51.929Z,3.72
2023-03-10T22:00:22.696Z,4.68
2023-03-10T22:02:51.681Z,5.95
2023-03-10T22:05:19.747Z,12.23
2023-03-10T22:07:46.958Z,7.28
2023-03-10T22:10:16.363Z,5.07
2023-03-10T22:12:43.705Z,6.43
2023-03-10T22:15:17.962Z,2.47
2023-03-10T22:17:45.939Z,8.15
2023-03-10T22:20:25.470Z,3.78
2023-03-10T22:22:53.625Z,6.75
2023-03-10T22:25:21.198Z,6.30
2023-03-10T22:27:52.711Z,6.00
2023-03-10T22:30:22.650Z,4.57
2023-03-10T22:32:50.623Z,3.58
2023-03-10T22:35:18.728Z,6.45
2023-03-10T22:37:46.321Z,7.03
2023-03-10T22:40:20.585Z,4.10
2023-03-10T22:42:48.823Z,12.70
2023-03-10T22:45:21.625Z,6.97
2023-03-10T22:47:51.320Z,7.63
2023-03-10T22:50:26.998Z,5.38
2023-03-10T22:52:54.187Z,6.60
2023-03-10T22:55:24.479Z,5.82
2023-03-10T22:57:55.989Z,8.50
2023-03-10T23:00:23.182Z,8.73
2023-03-10T23:02:53.227Z,9.43
2023-03-10T23:05:21.382Z,6.13
2023-03-10T23:07:49.009Z,6.68
2023-03-10T23:10:29.898Z,4.90
2023-03-10T23:13:01.220Z,6.25
2023-03-10T23:15:33.156Z,7.85
2023-03-10T23:18:01.152Z,5.25
2023-03-10T23:20:38.714Z,3.72
2023-03-10T23:23:08.209Z,5.88
2023-03-10T23:25:42.772Z,7.70
2023-03-10T23:28:10.882Z,5.07
2023-03-10T23:30:41.309Z,7.72
2023-03-10T23:33:13.446Z,5.43
2023-03-10T23:35:40.951Z,8.98
2023-03-10T23:38:08.625Z,5.85
2023-03-10T23:40:36.914Z,7.88
2023-03-10T23:43:08.452Z,4.03
2023-03-10T23:45:37.893Z,9.48
2023-03-10T23:50:38.692Z,5.05
2023-03-10T23:53:08.213Z,6.82
2023-03-10T23:55:39.438Z,5.57
2023-03-10T23:58:07.358Z,8.40
